Time;durP1;ratioP1;P1;durP2;ratioP2;P2;SDS_P1;SDS_P2;PMS_P1;PMS_P2;Temp;Humidity;BMP_temperature;BMP_pressure;BME280_temperature;BME280_humidity;BME280_pressure;Samples;Min_cycle;Max_cycle;Signal;HPM_P1;HPM_P2
2024/02/21 00:00:26;;;;;;;9.47;4.10;;;8.70;99.90;;;-141.84;67.23;18385.34;5096729;28;20265;-52
2024/02/21 00:02:54;;;;;;;10.00;3.30;;;8.70;99.90;;;-141.84;67.45;18409.72;5094582;28;20899;-50
2024/02/21 00:05:24;;;;;;;7.90;3.17;;;8.80;99.90;;;-141.84;68.07;18393.47;5095497;28;20216;-50
2024/02/21 00:07:54;;;;;;;7.93;3.83;;;8.70;99.90;;;-141.84;68.43;18421.91;5092022;28;20234;-56
2024/02/21 00:10:23;;;;;;;8.23;3.33;;;8.70;99.90;;;-141.84;68.26;18411.75;5092144;28;20277;-52
2024/02/21 00:12:52;;;;;;;8.93;3.60;;;8.70;99.90;;;-141.84;69.34;18425.97;5092948;28;20797;-48
2024/02/21 00:15:21;;;;;;;9.37;3.80;;;8.70;99.90;;;-141.84;69.54;18442.25;5097290;28;20196;-49
2024/02/21 00:17:53;;;;;;;10.27;4.00;;;8.70;99.90;;;-141.84;69.22;18448.34;5094080;28;20290;-47
2024/02/21 00:20:21;;;;;;;8.57;3.60;;;8.70;99.90;;;-141.84;69.99;18438.19;5093449;28;20255;-49
2024/02/21 00:22:55;;;;;;;12.57;3.90;;;8.60;99.90;;;-141.84;69.72;18428.03;5093473;28;20254;-51
2024/02/21 00:25:23;;;;;;;6.83;3.10;;;8.60;99.90;;;-141.84;69.45;18417.84;5094390;28;20224;-53
2024/02/21 00:27:55;;;;;;;13.20;3.77;;;8.60;99.90;;;-141.84;69.82;18448.34;5096030;28;20200;-65
2024/02/21 00:30:23;;;;;;;10.73;3.70;;;8.50;99.90;;;-141.84;70.99;18460.53;5096022;28;20253;-54
2024/02/21 00:32:51;;;;;;;9.57;4.00;;;8.50;99.90;;;-141.84;71.04;18468.66;5093341;28;20254;-48
2024/02/21 00:35:19;;;;;;;11.30;3.67;;;8.50;99.90;;;-141.84;70.80;18466.63;5094007;28;20230;-49
2024/02/21 00:37:48;;;;;;;6.93;3.67;;;8.60;99.90;;;-141.84;69.64;18415.81;5094401;28;20741;-51
2024/02/21 00:40:20;;;;;;;7.77;3.47;;;8.50;99.90;;;-141.84;70.11;18421.91;5070647;28;20231;-50
2024/02/21 00:42:50;;;;;;;9.43;3.33;;;8.50;99.90;;;-141.84;69.43;18425.97;5088088;28;20188;-50
2024/02/21 00:45:21;;;;;;;11.90;3.50;;;8.50;99.90;;;-141.84;69.21;18399.56;5092552;28;20551;-53
2024/02/21 00:47:49;;;;;;;9.90;3.20;;;8.50;99.90;;;-141.84;69.13;18428.03;5093629;28;20220;-49
2024/02/21 00:50:17;;;;;;;11.07;4.13;;;8.50;99.90;;;-141.84;68.95;18430.06;5093333;28;20238;-49
2024/02/21 00:52:46;;;;;;;8.67;3.27;;;8.50;99.90;;;-141.84;69.90;18417.84;5094359;28;20228;-54
2024/02/21 00:55:15;;;;;;;8.87;3.80;;;8.50;99.90;;;-141.84;69.44;18417.84;5095451;28;20223;-51
2024/02/21 00:57:44;;;;;;;9.03;3.53;;;8.50;99.90;;;-141.84;68.38;18460.53;5096274;28;20188;-51
2024/02/21 01:00:14;;;;;;;7.63;3.23;;;8.60;99.90;;;-141.84;69.82;18434.13;5092004;28;20322;-52
2024/02/21 01:02:42;;;;;;;9.93;3.80;;;8.50;99.90;;;-141.84;69.98;18419.88;5092883;28;20248;-51
2024/02/21 01:05:13;;;;;;;8.47;3.70;;;8.50;99.90;;;-141.84;68.92;18383.31;5093963;28;20279;-54
2024/02/21 01:07:41;;;;;;;8.97;3.50;;;8.50;99.90;;;-141.84;68.38;18401.59;5094285;28;20719;-52
2024/02/21 01:10:14;;;;;;;8.33;3.63;;;8.50;99.90;;;-141.84;68.50;18393.47;5094846;28;20223;-49
2024/02/21 01:12:44;;;;;;;8.73;3.67;;;8.50;99.90;;;-141.84;68.80;18403.63;5095793;28;20208;-52
2024/02/21 01:15:12;;;;;;;9.70;3.57;;;8.50;99.90;;;-141.84;68.22;18373.16;5092691;28;20228;-48
2024/02/21 01:17:42;;;;;;;11.33;3.70;;;8.60;99.90;;;-141.84;67.55;18399.56;5093489;28;20216;-53
2024/02/21 01:20:14;;;;;;;10.50;3.67;;;8.60;99.90;;;-141.84;68.46;18395.50;5093776;28;20268;-52
2024/02/21 01:22:42;;;;;;;9.30;3.80;;;8.50;99.90;;;-141.84;68.84;18407.69;5085276;28;20586;-50
2024/02/21 01:25:14;;;;;;;8.57;3.30;;;8.50;99.90;;;-141.84;67.59;18413.78;5094439;28;20283;-54
2024/02/21 01:27:44;;;;;;;10.60;4.10;;;8.50;99.90;;;-141.84;68.69;18401.59;5093861;28;20253;-52
2024/02/21 01:30:14;;;;;;;7.03;3.30;;;8.50;99.90;;;-141.84;68.84;18413.78;5092865;28;20287;-54
2024/02/21 01:32:43;;;;;;;10.13;3.70;;;8.50;99.90;;;-141.84;67.81;18395.50;5093893;28;20757;-48
2024/02/21 01:35:11;;;;;;;8.60;3.50;;;8.50;99.90;;;-141.84;68.67;18389.41;5093620;28;20786;-67
2024/02/21 01:37:39;;;;;;;7.30;3.50;;;8.50;99.90;;;-141.84;69.03;18381.28;5094647;28;20224;-66
2024/02/21 01:40:14;;;;;;;9.87;3.93;;;8.50;99.90;;;-141.84;68.43;18381.28;5095328;28;20283;-53
2024/02/21 01:42:44;;;;;;;10.00;3.80;;;8.50;99.90;;;-141.84;67.88;18417.84;5086018;28;20277;-49
2024/02/21 01:45:15;;;;;;;10.90;4.03;;;8.50;99.90;;;-141.84;69.00;18397.53;5093857;28;20280;-52
2024/02/21 01:47:46;;;;;;;7.27;3.63;;;8.50;99.90;;;-141.84;68.79;18389.41;5093186;28;20242;-52
2024/02/21 01:50:17;;;;;;;9.13;3.83;;;8.50;99.90;;;-141.84;68.10;18365.03;5092563;28;20224;-51
2024/02/21 01:52:52;;;;;;;9.60;4.43;;;8.50;99.90;;;-141.84;67.99;18444.28;5094353;28;20804;-51
2024/02/21 01:55:21;;;;;;;10.27;3.80;;;8.50;99.90;;;-141.84;67.80;18379.25;5086184;28;20219;-52
2024/02/21 01:57:54;;;;;;;9.53;3.63;;;8.50;99.90;;;-141.84;68.08;18391.44;5094232;28;20188;-48
2024/02/21 02:00:25;;;;;;;8.03;3.73;;;8.50;99.90;;;-141.84;68.54;18367.06;5093609;28;20212;-53
2024/02/21 02:02:56;;;;;;;8.43;3.57;;;8.50;99.90;;;-141.84;67.91;18411.75;5094250;28;20248;-53
2024/02/21 02:05:24;;;;;;;10.00;3.53;;;8.60;99.90;;;-141.84;67.21;18397.53;5094079;28;20224;-51
2024/02/21 02:07:55;;;;;;;9.20;3.50;;;8.60;99.90;;;-141.84;66.59;18381.28;5093850;28;20228;-51
2024/02/21 02:10:23;;;;;;;10.50;3.90;;;8.60;99.90;;;-141.84;67.01;18385.34;5093074;28;20288;-54
2024/02/21 02:12:55;;;;;;;8.47;3.57;;;8.60;99.90;;;-141.84;66.73;18395.50;5091941;28;20188;-53
2024/02/21 02:15:23;;;;;;;12.17;4.20;;;8.60;99.90;;;-141.84;67.12;18354.88;5085103;28;20238;-50
2024/02/21 02:17:51;;;;;;;8.30;3.57;;;8.60;99.90;;;-141.84;67.32;18375.19;5093069;28;20628;-54
2024/02/21 02:20:19;;;;;;;8.83;3.60;;;8.60;99.90;;;-141.84;65.98;18377.22;5090018;28;20299;-49
2024/02/21 02:22:50;;;;;;;8.10;4.03;;;8.60;99.90;;;-141.84;67.05;18377.22;5095006;28;20270;-52
2024/02/21 02:25:20;;;;;;;8.33;3.33;;;8.60;99.90;;;-141.84;66.69;18354.88;5047083;28;20232;-48
2024/02/21 02:27:48;;;;;;;8.60;3.87;;;8.60;99.90;;;-141.84;67.38;18391.44;5092578;28;20210;-51
2024/02/21 02:30:17;;;;;;;11.03;4.20;;;8.50;99.90;;;-141.84;67.50;18403.63;5091587;28;20248;-50
2024/02/21 02:32:46;;;;;;;10.67;4.10;;;8.60;99.90;;;-141.84;66.87;18379.25;5092702;28;20245;-52
2024/02/21 02:35:16;;;;;;;10.83;3.87;;;8.50;99.90;;;-141.84;67.53;18403.63;5039138;28;20297;-53
2024/02/21 02:37:54;;;;;;;8.67;4.07;;;8.50;99.90;;;-141.84;67.80;18387.38;5093555;28;20220;-52
2024/02/21 02:40:24;;;;;;;6.50;3.70;;;8.50;99.90;;;-141.84;68.06;18403.63;5063339;28;20674;-52
2024/02/21 02:42:54;;;;;;;9.87;3.73;;;8.60;99.90;;;-141.84;67.66;18405.66;5091668;28;20702;-54
2024/02/21 02:45:26;;;;;;;10.07;3.83;;;8.50;99.90;;;-141.84;68.16;18387.38;5092668;28;20212;-50
2024/02/21 02:47:56;;;;;;;9.87;3.83;;;8.50;99.90;;;-141.84;68.09;18389.41;5083594;28;20269;-54
2024/02/21 02:50:25;;;;;;;7.97;3.30;;;8.50;99.90;;;-141.84;67.81;18399.56;5093341;28;20631;-67
2024/02/21 02:52:54;;;;;;;10.83;3.60;;;8.50;99.90;;;-141.84;67.64;18413.78;5093652;28;20242;-67
2024/02/21 02:55:25;;;;;;;11.00;3.70;;;8.50;99.90;;;-141.84;68.54;18365.03;5091387;28;20227;-66
2024/02/21 02:57:53;;;;;;;8.63;3.67;;;8.50;99.90;;;-141.84;68.83;18409.72;5091461;28;20188;-65
2024/02/21 03:00:22;;;;;;;11.67;4.23;;;8.50;99.90;;;-141.84;67.94;18389.41;5091744;28;20196;-66
2024/02/21 03:02:51;;;;;;;7.37;3.53;;;8.50;99.90;;;-141.84;68.60;18371.13;5091243;28;20219;-67
2024/02/21 03:05:22;;;;;;;8.20;4.07;;;8.50;99.90;;;-141.84;68.38;18432.09;5094126;28;20223;-66
2024/02/21 03:07:51;;;;;;;7.20;3.70;;;8.50;99.90;;;-141.84;67.26;18389.41;5083386;28;20268;-67
2024/02/21 03:10:19;;;;;;;8.53;4.07;;;8.50;99.90;;;-141.84;67.36;18415.81;5093261;28;20224;-66
2024/02/21 03:12:49;;;;;;;5.50;3.50;;;8.50;99.90;;;-141.84;66.96;18387.38;5091789;28;20203;-67
2024/02/21 03:15:17;;;;;;;8.17;3.90;;;8.60;99.90;;;-141.84;67.11;18373.16;5092670;28;20809;-67
2024/02/21 03:17:45;;;;;;;8.77;3.63;;;8.60;99.90;;;-141.84;66.63;18387.38;5092155;28;20247;-66
2024/02/21 03:20:15;;;;;;;7.83;4.00;;;8.60;99.90;;;-141.84;66.23;18395.50;5094229;28;20224;-66
2024/02/21 03:22:43;;;;;;;7.50;3.87;;;8.60;99.90;;;-141.84;65.57;18393.47;5090767;28;20609;-65
2024/02/21 03:25:15;;;;;;;7.53;4.13;;;8.60;99.90;;;-141.84;66.91;18381.28;5091820;28;20220;-65
2024/02/21 03:27:43;;;;;;;8.37;3.70;;;8.60;99.90;;;-141.84;67.47;18430.06;5092504;28;20267;-65
2024/02/21 03:30:14;;;;;;;7.40;3.57;;;8.60;99.90;;;-141.84;67.41;18367.06;5092257;28;20220;-67
2024/02/21 03:32:42;;;;;;;6.73;3.67;;;8.50;99.90;;;-141.84;67.99;18389.41;5092777;28;20219;-66
2024/02/21 03:35:15;;;;;;;8.80;3.67;;;8.50;99.90;;;-141.84;67.17;18419.88;5084336;28;20228;-66
2024/02/21 03:37:43;;;;;;;8.40;3.90;;;8.50;99.90;;;-141.84;66.91;18407.69;5091896;28;20216;-67
2024/02/21 03:40:12;;;;;;;9.87;4.07;;;8.60;99.90;;;-141.84;67.47;18397.53;5090993;28;20231;-66
2024/02/21 03:42:40;;;;;;;11.57;4.10;;;8.50;99.90;;;-141.84;68.26;18369.09;5093081;28;20318;-66
2024/02/21 03:45:15;;;;;;;8.67;3.87;;;8.50;99.90;;;-141.84;67.32;18393.47;5091550;28;20220;-49
2024/02/21 03:47:43;;;;;;;8.33;3.93;;;8.50;99.90;;;-141.84;68.01;18405.66;5093934;28;20226;-66
2024/02/21 03:50:11;;;;;;;9.30;3.60;;;8.60;99.90;;;-141.84;67.71;18383.31;5095812;28;20291;-65
2024/02/21 03:52:40;;;;;;;9.20;3.53;;;8.60;99.90;;;-141.84;68.21;18428.03;5094733;28;20223;-66
2024/02/21 03:55:12;;;;;;;8.10;3.70;;;8.60;99.90;;;-141.84;68.43;18407.69;5095548;28;20220;-65
2024/02/21 03:57:41;;;;;;;7.17;3.43;;;8.50;99.90;;;-141.84;68.86;18450.38;5061014;28;20588;-66
2024/02/21 04:00:15;;;;;;;9.40;3.97;;;8.50;99.90;;;-141.84;68.82;18403.63;5096084;28;20262;-66
2024/02/21 04:02:43;;;;;;;9.53;4.17;;;8.50;99.90;;;-141.84;69.34;18448.34;5096765;28;20315;-66
2024/02/21 04:05:12;;;;;;;11.27;4.10;;;8.50;99.90;;;-141.84;69.10;18417.84;5094482;28;20659;-66
2024/02/21 04:07:40;;;;;;;6.87;3.83;;;8.50;99.90;;;-141.84;69.48;18430.06;5094584;28;20699;-67
2024/02/21 04:10:11;;;;;;;9.47;4.00;;;8.50;99.90;;;-141.84;69.15;18417.84;5096088;28;20290;-53
2024/02/21 04:12:39;;;;;;;9.83;4.10;;;8.60;99.90;;;-141.84;70.33;18440.22;5060595;28;20200;-51
2024/02/21 04:15:10;;;;;;;7.57;4.00;;;8.60;99.90;;;-141.84;70.33;18464.59;5094777;28;20641;-53
2024/02/21 04:17:42;;;;;;;10.03;4.93;;;8.50;99.90;;;-141.84;69.91;18442.25;5096043;28;20284;-50
2024/02/21 04:20:16;;;;;;;7.20;3.77;;;8.60;99.90;;;-141.84;70.69;18446.31;5093650;28;20230;-50
2024/02/21 04:22:45;;;;;;;10.57;4.23;;;8.50;99.90;;;-141.84;70.93;18460.53;5094652;28;20224;-54
2024/02/21 04:25:14;;;;;;;8.50;4.33;;;8.50;99.90;;;-141.84;71.93;18468.66;5096557;28;20228;-52
2024/02/21 04:27:42;;;;;;;7.23;4.03;;;8.50;99.90;;;-141.84;72.01;18493.03;5097272;28;20809;-66
2024/02/21 04:30:15;;;;;;;8.43;3.90;;;8.50;99.90;;;-141.84;71.38;18501.16;5097560;28;20257;-66
2024/02/21 04:32:45;;;;;;;9.67;3.53;;;8.50;99.90;;;-141.84;70.30;18442.25;5095687;28;20252;-67
2024/02/21 04:35:14;;;;;;;8.77;3.90;;;8.60;99.90;;;-141.84;70.87;18450.38;5095737;28;20219;-66
2024/02/21 04:37:42;;;;;;;12.07;4.17;;;8.60;99.90;;;-141.84;71.97;18497.09;5095321;28;20216;-66
2024/02/21 04:40:12;;;;;;;9.20;4.57;;;8.50;99.90;;;-141.84;71.02;18468.66;5095777;28;20224;-66
2024/02/21 04:42:41;;;;;;;8.47;3.83;;;8.60;99.90;;;-141.84;71.25;18488.97;5095966;28;20279;-66
2024/02/21 04:45:12;;;;;;;8.03;4.47;;;8.60;99.90;;;-141.84;72.67;18531.63;5096748;28;20285;-66
2024/02/21 04:47:40;;;;;;;12.47;4.73;;;8.50;99.90;;;-141.84;73.81;18574.28;5095487;28;20234;-66
2024/02/21 04:50:10;;;;;;;13.63;4.87;;;8.50;99.90;;;-141.84;73.59;18556.00;5091708;28;20224;-65
2024/02/21 04:52:39;;;;;;;8.83;4.50;;;8.50;99.90;;;-141.84;73.52;18566.16;5091947;28;20319;-65
2024/02/21 04:55:08;;;;;;;9.50;4.63;;;8.50;99.90;;;-141.84;74.13;18610.88;5084778;28;20218;-65
2024/02/21 04:57:36;;;;;;;11.20;4.20;;;8.40;99.90;;;-141.84;71.90;18493.03;5094655;28;20195;-65
2024/02/21 05:00:06;;;;;;;9.67;4.63;;;8.50;99.90;;;-141.84;72.26;18501.16;5095203;28;20243;-66
2024/02/21 05:02:34;;;;;;;7.57;4.10;;;8.50;99.90;;;-141.84;72.88;18521.47;5094134;28;20212;-65
2024/02/21 05:05:03;;;;;;;10.77;4.60;;;8.50;99.90;;;-141.84;73.15;18533.66;5094101;28;20299;-66
2024/02/21 05:07:36;;;;;;;8.00;4.20;;;8.50;99.90;;;-141.84;72.31;18509.28;5094552;28;20232;-65
2024/02/21 05:10:05;;;;;;;8.43;4.43;;;8.50;99.90;;;-141.84;72.75;18533.66;5094801;28;20263;-66
2024/02/21 05:12:35;;;;;;;7.33;4.43;;;8.50;99.90;;;-141.84;71.96;18474.75;5095298;28;20218;-65
2024/02/21 05:15:04;;;;;;;11.90;5.13;;;8.30;99.90;;;-141.84;71.88;18446.31;5095778;28;20251;-66
2024/02/21 05:17:32;;;;;;;9.80;5.07;;;8.60;99.90;;;-141.84;72.45;18507.25;5094210;28;20247;-65
2024/02/21 05:20:00;;;;;;;11.53;6.90;;;8.60;99.90;;;-141.84;73.47;18564.13;5094000;28;20220;-65
2024/02/21 05:22:30;;;;;;;10.77;5.87;;;8.50;99.90;;;-141.84;72.95;18549.91;5093135;28;20751;-53
2024/02/21 05:25:05;;;;;;;9.23;5.30;;;8.60;99.90;;;-141.84;72.78;18537.72;5073342;28;20215;-53
2024/02/21 05:27:36;;;;;;;9.87;5.10;;;8.50;99.90;;;-141.84;73.75;18560.06;5096334;28;20185;-52
2024/02/21 05:30:07;;;;;;;9.07;5.33;;;8.50;99.90;;;-141.84;72.04;18499.13;5092858;28;20219;-53
2024/02/21 05:32:35;;;;;;;8.07;4.10;;;8.50;99.90;;;-141.84;71.73;18460.53;5093800;28;20644;-50
2024/02/21 05:35:04;;;;;;;10.37;4.40;;;8.60;99.90;;;-141.84;72.24;18505.22;5092212;28;20283;-52
2024/02/21 05:37:33;;;;;;;8.33;4.30;;;8.50;99.90;;;-141.84;72.06;18495.06;5093351;28;20251;-52
2024/02/21 05:40:01;;;;;;;10.43;4.67;;;8.50;99.90;;;-141.84;70.87;18462.56;5093894;28;20201;-51
2024/02/21 05:42:32;;;;;;;12.10;4.67;;;8.60;99.90;;;-141.84;70.80;18432.09;5096122;28;20196;-54
2024/02/21 05:45:00;;;;;;;11.13;4.07;;;8.60;99.90;;;-141.84;72.85;18517.41;5092826;28;20644;-64
2024/02/21 05:47:28;;;;;;;8.27;4.50;;;8.60;99.90;;;-141.84;72.20;18501.16;5091852;28;20303;-65
2024/02/21 05:49:58;;;;;;;5.40;3.97;;;8.60;99.90;;;-141.84;71.36;18452.41;5092969;28;20957;-66
2024/02/21 05:52:26;;;;;;;11.03;4.83;;;8.60;99.90;;;-141.84;70.99;18450.38;5095939;28;20597;-66
2024/02/21 05:54:55;;;;;;;11.07;4.17;;;8.60;99.90;;;-141.84;71.24;18450.38;5095475;28;20222;-67
2024/02/21 05:57:23;;;;;;;8.07;4.07;;;8.60;99.90;;;-141.84;71.67;18476.78;5095744;28;20220;-66
2024/02/21 05:59:53;;;;;;;9.03;4.17;;;8.60;99.90;;;-141.84;72.40;18486.94;5092069;28;20231;-66
2024/02/21 06:02:22;;;;;;;7.70;4.10;;;8.50;99.90;;;-141.84;72.46;18501.16;5093585;28;20303;-51
2024/02/21 06:04:50;;;;;;;9.03;4.30;;;8.50;99.90;;;-141.84;71.60;18464.59;5093905;28;20238;-52
2024/02/21 06:07:19;;;;;;;9.27;3.97;;;8.50;99.90;;;-141.84;70.62;18432.09;5090732;28;20757;-66
2024/02/21 06:09:47;;;;;;;8.77;4.20;;;8.60;99.90;;;-141.84;72.02;18484.91;5081657;28;20216;-65
2024/02/21 06:12:15;;;;;;;9.30;4.40;;;8.50;99.90;;;-141.84;71.30;18480.84;5092760;28;20723;-66
2024/02/21 06:14:43;;;;;;;10.70;4.10;;;8.50;99.90;;;-141.84;72.34;18488.97;5092020;28;20220;-65
2024/02/21 06:17:13;;;;;;;9.83;4.23;;;8.50;99.90;;;-141.84;74.31;18556.00;5091140;28;20243;-67
2024/02/21 06:19:43;;;;;;;8.00;4.10;;;8.30;99.90;;;-141.84;73.75;18560.06;5092705;28;20273;-66
2024/02/21 06:22:13;;;;;;;10.20;4.50;;;8.20;99.90;;;-141.84;73.56;18612.91;5093117;28;20232;-65
2024/02/21 06:24:41;;;;;;;9.90;5.13;;;8.30;99.90;;;-141.84;75.65;18740.91;5093673;28;20196;-65
2024/02/21 06:27:11;;;;;;;9.70;4.50;;;8.20;99.90;;;-141.84;75.58;18692.13;5092688;28;20959;-65
2024/02/21 06:29:39;;;;;;;12.37;4.97;;;8.20;99.90;;;-141.84;75.42;18675.88;5093291;28;20223;-65
2024/02/21 06:32:07;;;;;;;9.50;4.53;;;8.20;99.90;;;-141.84;76.17;18809.97;5093109;28;20219;-68
2024/02/21 06:34:37;;;;;;;7.87;4.37;;;8.20;99.90;;;-141.84;77.13;18883.13;5092745;28;20231;-66
2024/02/21 06:37:05;;;;;;;7.60;4.27;;;8.10;99.90;;;-141.84;74.91;18643.38;5093177;28;20695;-66
2024/02/21 06:39:37;;;;;;;7.40;4.20;;;8.20;99.90;;;-141.84;76.31;18771.38;5096257;28;20220;-67
2024/02/21 06:42:05;;;;;;;12.60;4.80;;;8.30;99.90;;;-141.84;75.42;18696.19;5092656;28;20219;-67
2024/02/21 06:44:36;;;;;;;9.87;4.83;;;8.30;99.90;;;-141.84;75.80;18718.56;5093473;28;20219;-66
2024/02/21 06:47:05;;;;;;;7.57;4.30;;;8.30;99.90;;;-141.84;75.98;18765.28;5087304;28;20220;-66
2024/02/21 06:49:33;;;;;;;9.93;5.13;;;8.30;99.90;;;-141.84;73.22;18509.28;5094606;28;20228;-67
2024/02/21 06:52:03;;;;;;;9.03;4.80;;;8.40;99.90;;;-141.84;75.08;18635.25;5093086;28;20612;-67
2024/02/21 06:54:34;;;;;;;10.40;4.40;;;8.40;99.90;;;-141.84;75.13;18696.19;5094328;28;20251;-66
2024/02/21 06:57:02;;;;;;;6.17;4.50;;;8.40;99.90;;;-141.84;74.59;18584.47;5093743;28;20255;-65
2024/02/21 06:59:31;;;;;;;10.03;4.87;;;8.40;99.90;;;-141.84;74.40;18588.53;5093065;28;20283;-65
2024/02/21 07:02:00;;;;;;;8.03;5.17;;;8.40;99.90;;;-141.84;74.84;18635.25;5091542;28;20219;-65
2024/02/21 07:04:29;;;;;;;8.63;4.37;;;8.40;99.90;;;-141.84;74.04;18570.22;5083099;28;20234;-66
2024/02/21 07:06:58;;;;;;;6.97;4.17;;;8.40;99.90;;;-141.84;72.64;18515.38;5041076;28;20269;-53
2024/02/21 07:09:28;;;;;;;11.20;4.23;;;8.50;99.90;;;-141.84;71.66;18478.81;5093767;28;20185;-55
2024/02/21 07:11:58;;;;;;;8.90;4.57;;;8.60;99.90;;;-141.84;71.80;18436.16;5093064;28;20216;-51
2024/02/21 07:14:26;;;;;;;8.40;4.40;;;8.60;99.90;;;-141.84;70.91;18405.66;5093790;28;20216;-52
2024/02/21 07:16:54;;;;;;;8.53;4.70;;;8.60;99.90;;;-141.84;70.86;18428.03;5089843;28;20316;-53
2024/02/21 07:19:23;;;;;;;7.67;5.13;;;8.70;99.90;;;-141.84;71.74;18432.09;5090082;28;20618;-53
2024/02/21 07:21:52;;;;;;;9.87;5.70;;;8.70;99.90;;;-141.84;71.28;18432.09;5091703;28;20675;-53
2024/02/21 07:24:20;;;;;;;11.33;5.67;;;8.70;99.90;;;-141.84;70.92;18432.09;5095369;28;20265;-53
2024/02/21 07:26:51;;;;;;;11.33;5.67;;;8.70;99.90;;;-141.84;70.41;18442.25;5092724;28;20286;-53
2024/02/21 07:29:19;;;;;;;14.07;6.93;;;8.80;99.90;;;-141.84;70.13;18413.78;5094821;28;20648;-55
2024/02/21 07:31:48;;;;;;;10.23;6.17;;;8.80;99.90;;;-141.84;69.28;18413.78;5094602;28;20255;-54
2024/02/21 07:34:17;;;;;;;13.20;6.37;;;8.90;99.90;;;-141.84;69.99;18395.50;5096007;28;20224;-50
2024/02/21 07:36:46;;;;;;;11.43;6.60;;;8.90;99.90;;;-141.84;70.94;18452.41;5096324;28;20220;-53
2024/02/21 07:39:14;;;;;;;10.17;5.73;;;8.90;99.90;;;-141.84;69.92;18421.91;5095325;28;20254;-49
2024/02/21 07:41:44;;;;;;;8.67;6.03;;;8.90;99.90;;;-141.84;70.28;18405.66;5094875;28;20300;-54
2024/02/21 07:44:14;;;;;;;9.73;6.07;;;8.90;99.90;;;-141.84;70.22;18432.09;5094509;28;20220;-52
2024/02/21 07:46:42;;;;;;;8.43;5.73;;;8.90;99.90;;;-141.84;68.45;18428.03;5095196;28;20247;-53
2024/02/21 07:49:10;;;;;;;13.73;5.93;;;9.00;99.90;;;-141.84;68.98;18389.41;5095091;28;20243;-53
2024/02/21 07:51:39;;;;;;;10.33;6.43;;;9.00;99.90;;;-141.84;68.61;18383.31;5096707;28;20219;-53
2024/02/21 07:54:07;;;;;;;10.33;5.80;;;9.00;99.90;;;-141.84;69.11;18440.22;5096812;28;20226;-52
2024/02/21 07:56:38;;;;;;;9.70;5.73;;;9.00;99.90;;;-141.84;68.85;18425.97;5095946;28;20244;-67
2024/02/21 07:59:07;;;;;;;10.50;6.33;;;9.10;99.90;;;-141.84;67.42;18383.31;5096611;28;20255;-67
2024/02/21 08:01:37;;;;;;;8.03;5.60;;;9.20;99.90;;;-141.84;67.45;18399.56;5095069;28;20232;-67
2024/02/21 08:04:05;;;;;;;12.30;6.20;;;9.20;99.90;;;-141.84;66.52;18401.59;5093641;28;20245;-67
2024/02/21 08:06:33;;;;;;;8.40;5.90;;;9.30;99.90;;;-141.84;66.89;18405.66;5094522;28;20212;-67
2024/02/21 08:09:02;;;;;;;11.33;6.27;;;9.30;99.90;;;-141.84;66.06;18379.25;5092205;28;20259;-54
2024/02/21 08:11:32;;;;;;;10.77;6.60;;;9.40;99.90;;;-141.84;66.21;18354.88;5092268;28;20227;-51
2024/02/21 08:14:00;;;;;;;11.37;6.17;;;9.40;99.90;;;-141.84;66.19;18405.66;5094913;28;20230;-53
2024/02/21 08:16:29;;;;;;;8.33;6.00;;;9.40;99.90;;;-141.84;65.49;18421.91;5093025;28;20235;-53
2024/02/21 08:18:59;;;;;;;11.63;6.10;;;9.50;99.90;;;-141.84;65.04;18419.88;5093099;28;20204;-54
2024/02/21 08:21:28;;;;;;;11.57;6.00;;;9.60;99.90;;;-141.84;64.29;18442.25;5094086;28;20592;-52
2024/02/21 08:23:56;;;;;;;10.43;5.73;;;9.70;99.90;;;-141.84;63.70;18403.63;5092416;28;20258;-53
2024/02/21 08:26:27;;;;;;;11.00;6.07;;;9.90;99.90;;;-141.84;62.53;18480.84;5092340;28;20220;-53
2024/02/21 08:28:55;;;;;;;11.43;6.27;;;10.00;99.90;;;-141.84;62.47;18425.97;5092808;28;20304;-50
2024/02/21 08:31:24;;;;;;;9.77;6.30;;;10.10;99.90;;;-141.84;61.66;18436.16;5092312;28;20733;-53
2024/02/21 08:33:52;;;;;;;9.43;6.00;;;10.20;99.90;;;-141.84;61.82;18438.19;5091970;28;20196;-53
2024/02/21 08:36:22;;;;;;;7.67;5.10;;;10.30;99.90;;;-141.84;61.31;18476.78;5094016;28;20188;-50
2024/02/21 08:38:52;;;;;;;11.83;6.37;;;10.30;99.90;;;-141.84;62.36;18419.88;5092230;28;20220;-50
2024/02/21 08:41:22;;;;;;;11.03;5.83;;;10.20;99.90;;;-141.84;63.84;18415.81;5088558;28;20216;-49
2024/02/21 08:43:57;;;;;;;8.70;5.10;;;10.00;99.90;;;-141.84;62.97;18413.78;5091465;28;20254;-51
2024/02/21 08:46:26;;;;;;;12.00;5.87;;;10.00;99.90;;;-141.84;63.53;18407.69;5092861;28;20280;-49
2024/02/21 08:48:56;;;;;;;8.37;5.20;;;9.90;99.90;;;-141.84;64.08;18403.63;5092886;28;20200;-51
2024/02/21 08:51:26;;;;;;;10.83;5.13;;;9.80;99.90;;;-141.84;64.25;18430.06;5092700;28;20188;-52
2024/02/21 08:53:55;;;;;;;9.53;5.17;;;9.80;99.90;;;-141.84;64.56;18425.97;5084652;28;20223;-53
2024/02/21 08:56:23;;;;;;;8.97;5.10;;;9.70;99.90;;;-141.84;65.24;18383.31;5092150;28;20263;-49
2024/02/21 08:58:51;;;;;;;9.23;5.50;;;9.60;99.90;;;-141.84;64.13;18407.69;5086346;28;20688;-51
2024/02/21 09:01:20;;;;;;;10.83;5.60;;;9.70;99.90;;;-141.84;64.48;18432.09;5091665;28;20795;-50
2024/02/21 09:03:53;;;;;;;11.43;5.77;;;9.70;99.90;;;-141.84;64.77;18428.03;5092123;28;20667;-52
2024/02/21 09:06:21;;;;;;;9.60;5.73;;;9.70;99.90;;;-141.84;64.62;18432.09;5091955;28;20204;-50
2024/02/21 09:08:51;;;;;;;10.40;6.00;;;9.60;99.90;;;-141.84;65.06;18415.81;5091308;28;20220;-49
2024/02/21 09:11:19;;;;;;;8.67;5.97;;;9.50;99.90;;;-141.84;64.71;18405.66;5091443;28;20277;-52
2024/02/21 09:13:48;;;;;;;9.17;5.70;;;9.60;99.90;;;-141.84;65.14;18413.78;5091692;28;20230;-47
2024/02/21 09:16:16;;;;;;;11.13;5.73;;;9.60;99.90;;;-141.84;64.69;18415.81;5055320;28;20227;-50
2024/02/21 09:18:44;;;;;;;10.90;5.83;;;9.60;99.90;;;-141.84;65.09;18417.84;5092085;28;20269;-50
2024/02/21 09:21:12;;;;;;;7.70;5.63;;;9.50;99.90;;;-141.84;64.95;18365.03;5083126;28;20216;-53
2024/02/21 09:23:41;;;;;;;9.10;5.33;;;9.60;99.90;;;-141.84;65.30;18428.03;5091652;28;20215;-53
2024/02/21 09:26:13;;;;;;;10.30;5.67;;;9.70;99.90;;;-141.84;64.41;18444.28;5091290;28;20737;-50
2024/02/21 09:28:42;;;;;;;10.63;5.53;;;9.70;99.90;;;-141.84;63.42;18444.28;5091506;28;20216;-50
2024/02/21 09:31:10;;;;;;;7.87;5.43;;;9.90;99.90;;;-141.84;63.03;18444.28;5091680;28;20675;-51
2024/02/21 09:33:39;;;;;;;8.43;5.37;;;10.00;99.90;;;-141.84;60.29;18434.13;5091407;28;20200;-53
2024/02/21 09:36:07;;;;;;;10.07;5.73;;;10.20;99.90;;;-141.84;60.58;18438.19;5090861;28;20251;-55
2024/02/21 09:38:35;;;;;;;9.50;5.73;;;10.20;99.90;;;-141.84;60.71;18413.78;5090734;28;20322;-54
2024/02/21 09:41:17;;;;;;;11.07;6.17;;;10.30;99.90;;;-141.84;61.44;18442.25;5090507;28;20262;-53
2024/02/21 09:43:53;;;;;;;8.87;5.77;;;10.30;99.90;;;-141.84;60.73;18442.25;5090713;28;20239;-55
2024/02/21 09:46:35;;;;;;;12.17;5.87;;;10.40;99.90;;;-141.84;60.89;18430.06;5090886;28;20232;-51
2024/02/21 09:49:21;;;;;;;10.40;6.07;;;10.30;99.90;;;-141.84;60.86;18448.34;5086782;28;20199;-52
2024/02/21 09:51:54;;;;;;;10.30;5.50;;;10.30;99.90;;;-141.84;61.53;18444.28;5084505;28;20706;-53
2024/02/21 09:54:23;;;;;;;10.13;5.90;;;10.20;99.90;;;-141.84;62.11;18448.34;5091306;28;20228;-55
2024/02/21 09:56:53;;;;;;;11.93;6.47;;;10.10;99.90;;;-141.84;61.59;18462.56;5090394;28;20223;-52
2024/02/21 09:59:22;;;;;;;10.63;6.00;;;10.20;99.90;;;-141.84;61.46;18456.47;5090328;28;20630;-54
2024/02/21 10:01:50;;;;;;;11.80;5.80;;;10.20;99.90;;;-141.84;61.07;18472.72;5090789;28;20312;-53
2024/02/21 10:04:20;;;;;;;8.90;5.50;;;10.20;99.90;;;-141.84;60.90;18495.06;5082259;28;20281;-49
2024/02/21 10:06:49;;;;;;;8.87;5.90;;;10.30;99.90;;;-141.84;59.53;18466.63;5091234;28;20203;-55
2024/02/21 10:09:24;;;;;;;12.17;6.37;;;10.40;99.90;;;-141.84;59.09;18501.16;5090111;28;20205;-54
2024/02/21 10:11:53;;;;;;;10.57;5.70;;;10.60;99.90;;;-141.84;58.67;18505.22;5090599;28;20612;-50
2024/02/21 10:14:22;;;;;;;12.93;6.13;;;10.70;99.90;;;-141.84;58.30;18535.69;5090506;28;20259;-51
2024/02/21 10:16:59;;;;;;;9.97;5.23;;;10.70;99.90;;;-141.84;57.60;18521.47;5089890;28;20289;-51
2024/02/21 10:19:27;;;;;;;10.17;5.10;;;10.90;99.90;;;-141.84;57.71;18488.97;5090082;28;20711;-54